Time;durP1;ratioP1;P1;durP2;ratioP2;P2;SDS_P1;SDS_P2;PMS_P1;PMS_P2;Temp;Humidity;BMP_temperature;BMP_pressure;BME280_temperature;BME280_humidity;BME280_pressure;Samples;Min_cycle;Max_cycle;Signal;HPM_P1;HPM_P2
2022/06/06 00:02:22;;;;;;;;;;;16.60;99.90;;;;;;5091401;28;19943;-70
2022/06/06 00:04:48;;;;;;;;;;;16.60;99.90;;;;;;5073037;28;19958;-70
2022/06/06 00:07:13;;;;;;;;;;;16.50;99.90;;;;;;5091408;28;19982;-70
2022/06/06 00:09:39;;;;;;;;;;;16.50;99.90;;;;;;5091108;28;19920;-70
2022/06/06 00:12:05;;;;;;;;;;;16.50;99.90;;;;;;5091278;28;19913;-70
2022/06/06 00:14:31;;;;;;;;;;;16.50;99.90;;;;;;5089842;28;19923;-71
2022/06/06 00:16:56;;;;;;;;;;;16.40;99.90;;;;;;5091385;28;19919;-70
2022/06/06 00:19:22;;;;;;;;;;;16.50;99.90;;;;;;5089716;28;19909;-70
2022/06/06 00:21:48;;;;;;;;;;;16.40;99.90;;;;;;5091284;28;20261;-71
2022/06/06 00:24:13;;;;;;;;;;;16.40;99.90;;;;;;5090770;28;20002;-70
2022/06/06 00:26:39;;;;;;;;;;;16.40;99.90;;;;;;5091085;28;19916;-71
2022/06/06 00:29:05;;;;;;;;;;;16.40;99.90;;;;;;5090923;28;20007;-71
2022/06/06 00:37:00;;;;;;;;;;;16.30;99.90;;;;;;5091462;28;19961;-70
2022/06/06 00:39:26;;;;;;;;;;;16.30;99.90;;;;;;5089620;28;19908;-70
2022/06/06 00:41:52;;;;;;;;;;;16.30;99.90;;;;;;5090984;28;19920;-70
2022/06/06 00:44:19;;;;;;;;;;;16.30;99.90;;;;;;5092717;28;19908;-71
2022/06/06 00:46:51;;;;;;;;;;;16.30;99.90;;;;;;5094720;28;19920;-70
2022/06/06 00:49:24;;;;;;;;;;;16.30;99.90;;;;;;5093092;28;20341;-70
2022/06/06 00:51:50;;;;;;;;;;;16.30;99.90;;;;;;5094576;28;20456;-71
2022/06/06 00:54:16;;;;;;;;;;;16.20;99.90;;;;;;5094511;28;19915;-71
2022/06/06 00:56:46;;;;;;;;;;;16.30;99.90;;;;;;5094557;28;20405;-70
2022/06/06 00:59:14;;;;;;;;;;;16.30;99.90;;;;;;5093088;28;19995;-70
2022/06/06 01:01:40;;;;;;;;;;;16.30;99.90;;;;;;5093123;28;19916;-70
2022/06/06 01:04:08;;;;;;;;;;;16.30;99.90;;;;;;5094258;28;19914;-70
2022/06/06 01:06:36;;;;;;;;;;;16.30;99.90;;;;;;5092809;28;19934;-70
2022/06/06 01:09:03;;;;;;;;;;;16.30;99.90;;;;;;5094255;28;19920;-70
2022/06/06 01:11:28;;;;;;;;;;;16.30;99.90;;;;;;5092952;28;19947;-71
2022/06/06 01:13:55;;;;;;;;;;;16.30;99.90;;;;;;5094262;28;20398;-70
2022/06/06 01:16:20;;;;;;;;;;;16.30;99.90;;;;;;5094571;28;19916;-70
2022/06/06 01:18:52;;;;;;;;;;;16.20;99.90;;;;;;5092607;28;19916;-70
2022/06/06 01:21:21;;;;;;;;;;;16.20;99.90;;;;;;5094536;28;19974;-70
2022/06/06 01:24:05;;;;;;;;;;;16.50;99.90;;;;;;5093603;28;20398;-70
2022/06/06 01:26:35;;;;;;;;;;;16.10;99.90;;;;;;5094456;28;19912;-70
2022/06/06 01:29:06;;;;;;;;;;;16.10;99.90;;;;;;5093654;28;19916;-70
2022/06/06 01:31:43;;;;;;;;;;;16.10;99.90;;;;;;5094217;28;19912;-71
2022/06/06 01:34:10;;;;;;;;;;;16.10;99.90;;;;;;5093971;28;19912;-70
2022/06/06 01:36:36;;;;;;;;;;;16.20;99.90;;;;;;5093546;28;19920;-71
2022/06/06 01:39:03;;;;;;;;;;;16.10;99.90;;;;;;5093734;28;20360;-71
2022/06/06 01:41:50;;;;;;;;;;;16.10;99.90;;;;;;5091954;28;19961;-71
2022/06/06 01:44:16;;;;;;;;;;;16.00;99.90;;;;;;5093659;28;19916;-71
2022/06/06 01:46:42;;;;;;;;;;;16.00;99.90;;;;;;5093817;28;20291;-71
2022/06/06 01:49:09;;;;;;;;;;;15.90;99.90;;;;;;5093644;28;19974;-71
2022/06/06 01:51:35;;;;;;;;;;;16.00;99.90;;;;;;5093462;28;20469;-70
2022/06/06 01:54:01;;;;;;;;;;;16.00;99.90;;;;;;5093327;28;19912;-71
2022/06/06 01:56:29;;;;;;;;;;;16.00;99.90;;;;;;5093026;28;20372;-71
2022/06/06 01:58:54;;;;;;;;;;;16.00;99.90;;;;;;5093425;28;19916;-71
2022/06/06 02:01:20;;;;;;;;;;;16.00;99.90;;;;;;5091716;28;19912;-71
2022/06/06 02:03:46;;;;;;;;;;;16.00;99.90;;;;;;5093109;28;19912;-71
2022/06/06 02:06:13;;;;;;;;;;;15.90;99.90;;;;;;5093609;28;19912;-71
2022/06/06 02:08:39;;;;;;;;;;;15.90;99.90;;;;;;5092999;28;20383;-71
2022/06/06 02:11:04;;;;;;;;;;;16.00;99.90;;;;;;5092981;28;20010;-71
2022/06/06 02:13:30;;;;;;;;;;;15.90;99.90;;;;;;5092974;28;19920;-71
2022/06/06 02:15:55;;;;;;;;;;;16.00;99.90;;;;;;5093344;28;20209;-71
2022/06/06 02:18:22;;;;;;;;;;;15.90;99.90;;;;;;5093034;28;20224;-71
2022/06/06 02:20:47;;;;;;;;;;;15.90;99.90;;;;;;5093314;28;20003;-72
2022/06/06 02:23:13;;;;;;;;;;;16.10;99.90;;;;;;5092661;28;19998;-71
2022/06/06 02:25:38;;;;;;;;;;;16.00;99.90;;;;;;5091480;28;19926;-72
2022/06/06 02:28:04;;;;;;;;;;;16.00;99.90;;;;;;5091348;28;19919;-71
2022/06/06 02:30:31;;;;;;;;;;;16.00;99.90;;;;;;5092591;28;19916;-71
2022/06/06 02:32:57;;;;;;;;;;;16.00;99.90;;;;;;5092808;28;19912;-70
2022/06/06 02:35:24;;;;;;;;;;;16.00;99.90;;;;;;5093007;28;19965;-71
2022/06/06 02:37:50;;;;;;;;;;;16.00;99.90;;;;;;5092629;28;19968;-69
2022/06/06 02:40:17;;;;;;;;;;;16.00;99.90;;;;;;5092731;28;19912;-71
2022/06/06 02:42:43;;;;;;;;;;;16.00;99.90;;;;;;5092494;28;19912;-71
2022/06/06 02:45:09;;;;;;;;;;;16.00;99.90;;;;;;5092783;28;19912;-71
2022/06/06 02:47:35;;;;;;;;;;;16.00;99.90;;;;;;5092315;28;19926;-71
2022/06/06 02:50:01;;;;;;;;;;;16.10;99.90;;;;;;5092545;28;19935;-71
2022/06/06 02:52:27;;;;;;;;;;;16.10;99.90;;;;;;5092383;28;20372;-71
2022/06/06 02:54:52;;;;;;;;;;;16.10;99.90;;;;;;5092445;28;19919;-71
2022/06/06 02:57:18;;;;;;;;;;;16.10;99.90;;;;;;5092327;28;19917;-71
2022/06/06 02:59:46;;;;;;;;;;;16.60;99.90;;;;;;5092180;28;19916;-71
2022/06/06 03:02:11;;;;;;;;;;;16.20;99.90;;;;;;5092223;28;19916;-71
2022/06/06 03:04:39;;;;;;;;;;;16.20;99.90;;;;;;5092206;28;19978;-71
2022/06/06 03:07:14;;;;;;;;;;;16.20;99.90;;;;;;5092190;28;19957;-72
2022/06/06 03:09:45;;;;;;;;;;;16.20;99.90;;;;;;5092462;28;19965;-71
2022/06/06 03:12:12;;;;;;;;;;;16.20;99.90;;;;;;5090972;28;19912;-71
2022/06/06 03:15:07;;;;;;;;;;;16.30;99.90;;;;;;5092200;28;19912;-71
2022/06/06 03:20:46;;;;;;;;;;;16.40;99.90;;;;;;5092300;28;19926;-71
2022/06/06 03:23:31;;;;;;;;;;;16.40;99.90;;;;;;5091959;28;19916;-71
2022/06/06 03:26:06;;;;;;;;;;;16.50;99.90;;;;;;5092263;28;19920;-71
2022/06/06 03:28:35;;;;;;;;;;;16.50;99.90;;;;;;5090294;28;19997;-71
2022/06/06 03:31:00;;;;;;;;;;;16.50;99.90;;;;;;5092331;28;19965;-71
2022/06/06 03:33:45;;;;;;;;;;;16.50;99.90;;;;;;5091700;28;19916;-71
2022/06/06 03:36:33;;;;;;;;;;;16.50;99.90;;;;;;5092126;28;20006;-71
2022/06/06 03:39:06;;;;;;;;;;;16.50;99.90;;;;;;5091605;28;20006;-71
2022/06/06 03:41:48;;;;;;;;;;;16.60;99.90;;;;;;5092164;28;19912;-71
2022/06/06 03:44:20;;;;;;;;;;;16.50;99.90;;;;;;5091532;28;20316;-71
2022/06/06 03:47:04;;;;;;;;;;;16.50;99.90;;;;;;5091782;28;19962;-71
2022/06/06 03:49:29;;;;;;;;;;;16.50;99.90;;;;;;5091558;28;20268;-71
2022/06/06 03:52:01;;;;;;;;;;;16.60;99.90;;;;;;5090257;28;20006;-70
2022/06/06 03:54:43;;;;;;;;;;;16.60;99.90;;;;;;5091423;28;19915;-70
2022/06/06 03:57:12;;;;;;;;;;;16.70;99.90;;;;;;5091549;28;19912;-71
2022/06/06 03:59:38;;;;;;;;;;;16.70;99.90;;;;;;5091389;28;19962;-71
2022/06/06 04:02:05;;;;;;;;;;;16.70;99.90;;;;;;5091608;28;19912;-71
2022/06/06 04:04:31;;;;;;;;;;;16.70;99.90;;;;;;5091380;28;19920;-71
2022/06/06 04:06:58;;;;;;;;;;;16.60;99.90;;;;;;5091652;28;19912;-70
2022/06/06 04:09:33;;;;;;;;;;;16.70;99.90;;;;;;5091667;28;20324;-71
2022/06/06 04:12:01;;;;;;;;;;;16.70;99.90;;;;;;5091405;28;19998;-71
2022/06/06 04:14:31;;;;;;;;;;;16.70;99.90;;;;;;5091250;28;19908;-71
2022/06/06 04:17:00;;;;;;;;;;;16.80;99.90;;;;;;5091364;28;20301;-71
2022/06/06 04:19:40;;;;;;;;;;;16.80;99.90;;;;;;5093345;28;19956;-71
2022/06/06 04:22:22;;;;;;;;;;;16.80;99.90;;;;;;5095434;28;19923;-71
2022/06/06 04:24:54;;;;;;;;;;;16.90;99.90;;;;;;5095224;28;20279;-70
2022/06/06 04:27:19;;;;;;;;;;;16.90;99.90;;;;;;5095144;28;19913;-71
2022/06/06 04:30:06;;;;;;;;;;;17.00;99.90;;;;;;5095205;28;19920;-70
2022/06/06 04:32:31;;;;;;;;;;;16.90;99.90;;;;;;5095380;28;20264;-71
2022/06/06 04:34:56;;;;;;;;;;;17.00;99.90;;;;;;5095031;28;19918;-69
2022/06/06 04:37:25;;;;;;;;;;;17.10;99.90;;;;;;5095042;28;19956;-71
2022/06/06 04:39:59;;;;;;;;;;;17.10;99.90;;;;;;5095079;28;20290;-70
2022/06/06 04:42:28;;;;;;;;;;;17.20;99.90;;;;;;5095047;28;19922;-71
2022/06/06 04:45:12;;;;;;;;;;;17.20;99.90;;;;;;5094820;28;19912;-71
2022/06/06 04:47:38;;;;;;;;;;;17.30;99.90;;;;;;5094814;28;19916;-71
2022/06/06 04:50:05;;;;;;;;;;;17.30;99.90;;;;;;5095076;28;19912;-70
2022/06/06 04:52:32;;;;;;;;;;;17.30;99.90;;;;;;5095199;28;19912;-71
2022/06/06 04:54:59;;;;;;;;;;;17.40;99.90;;;;;;5094932;28;20040;-71
2022/06/06 04:57:25;;;;;;;;;;;17.40;99.90;;;;;;5094900;28;19923;-70
2022/06/06 04:59:51;;;;;;;;;;;17.40;99.90;;;;;;5094659;28;20360;-70
2022/06/06 05:02:16;;;;;;;;;;;17.40;99.90;;;;;;5094560;28;19990;-70
2022/06/06 05:04:42;;;;;;;;;;;17.50;99.90;;;;;;5094338;28;20320;-70
2022/06/06 05:07:19;;;;;;;;;;;17.60;99.90;;;;;;5094473;28;19968;-71
2022/06/06 05:09:44;;;;;;;;;;;17.70;99.90;;;;;;5094373;28;20018;-69
2022/06/06 05:12:29;;;;;;;;;;;17.70;99.90;;;;;;5094175;28;19922;-70
2022/06/06 05:14:57;;;;;;;;;;;17.80;99.90;;;;;;5094498;28;19939;-70
2022/06/06 05:17:38;;;;;;;;;;;17.80;99.90;;;;;;5094213;28;19912;-71
2022/06/06 05:20:22;;;;;;;;;;;17.90;99.90;;;;;;5094330;28;19912;-70
2022/06/06 05:22:50;;;;;;;;;;;17.90;99.90;;;;;;5093788;28;19999;-70
2022/06/06 05:25:27;;;;;;;;;;;18.00;99.90;;;;;;5092456;28;19920;-71
2022/06/06 05:28:12;;;;;;;;;;;18.00;99.90;;;;;;5094277;28;19916;-70
2022/06/06 05:30:40;;;;;;;;;;;18.10;99.90;;;;;;5091454;28;19951;-71
2022/06/06 05:33:13;;;;;;;;;;;18.30;99.90;;;;;;5093949;28;19918;-71
2022/06/06 05:35:57;;;;;;;;;;;18.30;99.90;;;;;;5093478;28;19912;-71
2022/06/06 05:38:28;;;;;;;;;;;18.50;99.90;;;;;;5092359;28;19920;-70
2022/06/06 05:40:55;;;;;;;;;;;18.60;99.90;;;;;;5092683;28;19920;-70
2022/06/06 05:43:40;;;;;;;;;;;18.70;99.90;;;;;;5093814;28;20010;-70
2022/06/06 05:46:09;;;;;;;;;;;18.80;99.90;;;;;;5094292;28;19920;-71
2022/06/06 05:48:38;;;;;;;;;;;18.80;99.90;;;;;;5093416;28;20023;-70
2022/06/06 05:51:16;;;;;;;;;;;19.00;99.90;;;;;;5094077;28;20411;-70
2022/06/06 05:53:41;;;;;;;;;;;19.00;99.90;;;;;;5093653;28;19922;-70
2022/06/06 05:56:26;;;;;;;;;;;19.10;99.90;;;;;;5093986;28;19912;-71
2022/06/06 05:59:13;;;;;;;;;;;19.10;99.90;;;;;;5093712;28;19912;-71
2022/06/06 06:01:54;;;;;;;;;;;19.20;99.90;;;;;;5093763;28;19962;-71
2022/06/06 06:04:28;;;;;;;;;;;19.30;99.90;;;;;;5093290;28;19909;-70
2022/06/06 06:06:58;;;;;;;;;;;19.40;99.90;;;;;;5093438;28;20272;-70
2022/06/06 06:09:31;;;;;;;;;;;19.50;99.90;;;;;;5091891;28;19965;-70
2022/06/06 06:12:08;;;;;;;;;;;19.50;99.90;;;;;;5093530;28;20011;-69
2022/06/06 06:14:47;;;;;;;;;;;19.50;99.90;;;;;;5091882;28;20419;-70
2022/06/06 06:17:16;;;;;;;;;;;19.60;99.90;;;;;;5093087;28;19965;-71
2022/06/06 06:19:47;;;;;;;;;;;19.60;99.90;;;;;;5074959;28;20390;-71
2022/06/06 06:22:13;;;;;;;;;;;19.70;99.90;;;;;;5093250;28;20296;-70
2022/06/06 06:24:40;;;;;;;;;;;19.70;99.90;;;;;;5092783;28;19920;-71
2022/06/06 06:27:06;;;;;;;;;;;19.70;99.90;;;;;;5093149;28;20396;-70
2022/06/06 06:29:32;;;;;;;;;;;19.80;99.90;;;;;;5092940;28;20412;-71
2022/06/06 06:32:05;;;;;;;;;;;20.00;99.90;;;;;;5092758;28;19912;-70
2022/06/06 06:34:51;;;;;;;;;;;20.10;99.90;;;;;;5091326;28;19912;-71
2022/06/06 06:37:26;;;;;;;;;;;20.20;99.90;;;;;;5091382;28;20284;-70
2022/06/06 06:40:20;;;;;;;;;;;20.30;99.90;;;;;;5092724;28;19943;-70
2022/06/06 06:42:56;;;;;;;;;;;20.40;99.90;;;;;;5079304;28;20383;-70
2022/06/06 06:45:29;;;;;;;;;;;20.50;99.90;;;;;;5092908;28;20006;-69
2022/06/06 06:47:59;;;;;;;;;;;20.40;99.90;;;;;;5092764;28;19930;-70
2022/06/06 06:50:37;;;;;;;;;;;20.50;99.90;;;;;;5092547;28;20273;-71
2022/06/06 06:53:21;;;;;;;;;;;20.60;99.90;;;;;;5092478;28;20445;-70
2022/06/06 06:56:02;;;;;;;;;;;20.80;99.90;;;;;;5092485;28;20335;-70
2022/06/06 06:58:51;;;;;;;;;;;20.90;99.90;;;;;;5092488;28;19991;-70
2022/06/06 07:01:21;;;;;;;;;;;21.00;99.90;;;;;;5092618;28;19916;-70
2022/06/06 07:09:49;;;;;;;;;;;21.30;99.90;;;;;;5092129;28;19923;-70
2022/06/06 07:12:21;;;;;;;;;;;21.50;99.90;;;;;;5092202;28;19916;-70
2022/06/06 07:14:56;;;;;;;;;;;21.50;99.90;;;;;;5090669;28;19927;-70
2022/06/06 07:17:23;;;;;;;;;;;21.50;99.90;;;;;;5092147;28;20249;-69
2022/06/06 07:19:52;;;;;;;;;;;21.70;99.90;;;;;;5090463;28;19952;-70
2022/06/06 07:22:18;;;;;;;;;;;21.70;99.90;;;;;;5090608;28;19982;-70
2022/06/06 07:24:45;;;;;;;;;;;21.90;99.90;;;;;;5091873;28;20409;-70
2022/06/06 07:27:10;;;;;;;;;;;22.00;99.90;;;;;;5091553;28;20002;-71
2022/06/06 07:29:36;;;;;;;;;;;22.20;99.90;;;;;;5091836;28;20073;-70
2022/06/06 07:32:05;;;;;;;;;;;22.30;99.90;;;;;;5091748;28;19912;-70
2022/06/06 07:34:42;;;;;;;;;;;22.50;99.90;;;;;;5091755;28;19919;-71
2022/06/06 07:37:21;;;;;;;;;;;22.50;99.30;;;;;;5091745;28;19969;-71
2022/06/06 07:39:52;;;;;;;;;;;22.60;99.60;;;;;;5091718;28;19912;-70
2022/06/06 07:42:27;;;;;;;;;;;22.80;99.40;;;;;;5091516;28;19938;-70
2022/06/06 07:45:01;;;;;;;;;;;22.90;98.20;;;;;;5091537;28;19947;-71
2022/06/06 07:47:26;;;;;;;;;;;22.90;97.20;;;;;;5091460;28;19916;-71
2022/06/06 07:49:55;;;;;;;;;;;23.00;97.40;;;;;;5091208;28;20413;-71
2022/06/06 07:52:20;;;;;;;;;;;23.10;97.50;;;;;;5091336;28;20287;-71
2022/06/06 07:54:53;;;;;;;;;;;23.40;97.10;;;;;;5089381;28;19913;-70
2022/06/06 07:57:18;;;;;;;;;;;23.50;96.50;;;;;;5091334;28;19919;-71
2022/06/06 07:59:49;;;;;;;;;;;23.70;96.70;;;;;;5091783;28;19913;-71
2022/06/06 08:02:34;;;;;;;;;;;23.90;95.20;;;;;;5091302;28;20011;-70
2022/06/06 08:04:59;;;;;;;;;;;24.00;94.30;;;;;;5091386;28;19923;-70
2022/06/06 08:07:36;;;;;;;;;;;24.00;94.20;;;;;;5091214;28;19916;-70
2022/06/06 08:10:01;;;;;;;;;;;24.00;94.00;;;;;;5091287;28;20280;-71
2022/06/06 08:12:27;;;;;;;;;;;24.10;93.10;;;;;;5091232;28;20030;-71
2022/06/06 08:15:11;;;;;;;;;;;24.30;92.80;;;;;;5091276;28;20355;-71
2022/06/06 08:17:41;;;;;;;;;;;24.40;92.60;;;;;;5091214;28;19912;-71
2022/06/06 08:20:06;;;;;;;;;;;24.70;92.60;;;;;;5091286;28;19912;-70
2022/06/06 08:22:33;;;;;;;;;;;24.80;91.50;;;;;;5091278;28;20260;-71
2022/06/06 08:25:02;;;;;;;;;;;24.90;90.90;;;;;;5091268;28;19927;-71
2022/06/06 08:27:28;;;;;;;;;;;25.00;90.60;;;;;;5091194;28;19913;-70
2022/06/06 08:29:54;;;;;;;;;;;25.10;90.40;;;;;;5091260;28;19917;-70
2022/06/06 08:32:19;;;;;;;;;;;25.30;90.10;;;;;;5091080;28;19930;-70
2022/06/06 08:34:45;;;;;;;;;;;25.40;89.70;;;;;;5089723;28;19916;-71
2022/06/06 08:37:35;;;;;;;;;;;25.50;90.00;;;;;;5091374;28;19991;-70
2022/06/06 08:40:10;;;;;;;;;;;25.60;90.00;;;;;;5091239;28;19916;-70
2022/06/06 08:42:45;;;;;;;;;;;25.70;90.10;;;;;;5091391;28;19919;-70
2022/06/06 08:45:13;;;;;;;;;;;25.80;88.00;;;;;;5091040;28;19927;-70
2022/06/06 08:47:41;;;;;;;;;;;26.00;87.50;;;;;;5091082;28;19919;-69
2022/06/06 08:53:19;;;;;;;;;;;26.00;86.10;;;;;;5090966;28;19973;-69
2022/06/06 08:55:44;;;;;;;;;;;26.10;86.60;;;;;;5091325;28;19912;-69
2022/06/06 08:58:29;;;;;;;;;;;26.20;88.50;;;;;;5091462;28;20050;-69
2022/06/06 09:01:13;;;;;;;;;;;26.30;86.90;;;;;;5091259;28;19912;-70
2022/06/06 09:03:38;;;;;;;;;;;26.30;85.80;;;;;;5089622;28;19920;-70
2022/06/06 09:06:19;;;;;;;;;;;26.40;83.50;;;;;;5094115;28;19919;-70
2022/06/06 09:09:19;;;;;;;;;;;26.60;83.50;;;;;;5094403;28;19923;-70
2022/06/06 09:12:04;;;;;;;;;;;26.90;82.80;;;;;;5094497;28;20319;-70
2022/06/06 09:14:33;;;;;;;;;;;27.10;81.80;;;;;;5094405;28;19958;-71
2022/06/06 09:17:15;;;;;;;;;;;27.40;81.60;;;;;;5094325;28;19916;-71
2022/06/06 09:20:03;;;;;;;;;;;27.80;79.10;;;;;;5092846;28;19912;-70
2022/06/06 09:22:45;;;;;;;;;;;27.70;80.20;;;;;;5085949;28;20007;-70
2022/06/06 09:25:10;;;;;;;;;;;27.60;78.50;;;;;;5094193;28;19920;-71
2022/06/06 09:27:49;;;;;;;;;;;27.50;78.10;;;;;;5093867;28;19985;-70
2022/06/06 09:30:27;;;;;;;;;;;27.40;78.60;;;;;;5094073;28;19934;-70
2022/06/06 09:32:55;;;;;;;;;;;27.50;79.20;;;;;;5094025;28;19912;-71
2022/06/06 09:35:36;;;;;;;;;;;27.60;78.00;;;;;;5094264;28;20360;-71
2022/06/06 09:38:15;;;;;;;;;;;27.70;76.50;;;;;;5093832;28;19923;-71
2022/06/06 09:40:43;;;;;;;;;;;27.70;77.00;;;;;;5094075;28;19916;-71
2022/06/06 09:43:15;;;;;;;;;;;27.80;76.10;;;;;;5093744;28;19912;-71
2022/06/06 09:45:47;;;;;;;;;;;28.00;75.60;;;;;;5094170;28;19918;-71
2022/06/06 09:48:36;;;;;;;;;;;28.00;76.40;;;;;;5093924;28;20014;-71
2022/06/06 09:51:12;;;;;;;;;;;28.10;77.40;;;;;;5092359;28;19923;-71
2022/06/06 09:59:01;;;;;;;;;;;28.10;75.20;;;;;;5093327;28;19912;-71
2022/06/06 09:59:46;;;;;;;;;;;27.90;73.90;;;;;;5093292;28;20012;-71
2022/06/06 10:02:30;;;;;;;;;;;27.90;73.80;;;;;;5082870;28;19920;-71
2022/06/06 10:05:01;;;;;;;;;;;28.30;73.40;;;;;;5093257;28;19916;-71
2022/06/06 10:07:27;;;;;;;;;;;28.60;71.60;;;;;;5093601;28;20395;-71
2022/06/06 10:10:11;;;;;;;;;;;28.90;71.50;;;;;;5091777;28;19959;-71
2022/06/06 10:12:46;;;;;;;;;;;29.00;70.50;;;;;;5093220;28;19994;-71
2022/06/06 10:15:18;;;;;;;;;;;28.90;70.10;;;;;;5093344;28;20356;-71
2022/06/06 10:17:44;;;;;;;;;;;28.80;70.90;;;;;;5092425;28;19916;-71
2022/06/06 10:20:35;;;;;;;;;;;29.00;69.90;;;;;;5092936;28;20382;-71
2022/06/06 10:23:07;;;;;;;;;;;29.30;68.80;;;;;;5089762;28;20310;-71
2022/06/06 10:25:51;;;;;;;;;;;29.10;69.00;;;;;;5092548;28;19924;-70
2022/06/06 10:28:16;;;;;;;;;;;29.10;69.50;;;;;;5092711;28;19959;-71
2022/06/06 10:30:51;;;;;;;;;;;29.30;69.40;;;;;;5092909;28;19955;-71
2022/06/06 10:33:24;;;;;;;;;;;29.60;68.50;;;;;;5092970;28;20378;-71
2022/06/06 10:35:58;;;;;;;;;;;29.40;68.80;;;;;;5092409;28;20280;-70
2022/06/06 10:38:26;;;;;;;;;;;29.00;68.00;;;;;;5092525;28;19954;-71
2022/06/06 10:40:57;;;;;;;;;;;28.70;69.30;;;;;;5092913;28;19963;-71
2022/06/06 10:43:29;;;;;;;;;;;28.80;68.80;;;;;;5092655;28;20364;-71
2022/06/06 10:46:13;;;;;;;;;;;29.10;68.90;;;;;;5093067;28;19969;-72
2022/06/06 10:48:57;;;;;;;;;;;29.40;69.00;;;;;;5092249;28;19919;-71
2022/06/06 10:51:37;;;;;;;;;;;29.60;67.90;;;;;;5092861;28;19916;-70
2022/06/06 10:54:21;;;;;;;;;;;29.70;67.20;;;;;;5092386;28;19909;-71
2022/06/06 10:57:16;;;;;;;;;;;29.70;68.00;;;;;;5092462;28;19916;-71
2022/06/06 10:59:44;;;;;;;;;;;29.90;67.20;;;;;;5092365;28;19950;-71
2022/06/06 11:02:12;;;;;;;;;;;30.00;65.10;;;;;;5092553;28;20364;-71
2022/06/06 11:04:44;;;;;;;;;;;29.80;63.70;;;;;;5092302;28;19956;-71
2022/06/06 11:07:12;;;;;;;;;;;29.90;64.60;;;;;;5093059;28;19915;-71
2022/06/06 11:09:43;;;;;;;;;;;30.10;64.80;;;;;;5092214;28;19920;-71
2022/06/06 11:12:09;;;;;;;;;;;30.30;63.40;;;;;;5092136;28;19948;-71
2022/06/06 11:14:39;;;;;;;;;;;30.30;63.90;;;;;;5092126;28;19957;-71
2022/06/06 11:17:07;;;;;;;;;;;29.80;64.00;;;;;;5092058;28;19916;-71
2022/06/06 11:19:51;;;;;;;;;;;29.80;65.60;;;;;;5091785;28;20014;-71
2022/06/06 11:22:25;;;;;;;;;;;29.90;64.80;;;;;;5091860;28;19908;-69
2022/06/06 11:25:10;;;;;;;;;;;30.00;63.70;;;;;;5091681;28;19932;-70
2022/06/06 11:27:36;;;;;;;;;;;29.90;63.20;;;;;;5091340;28;19916;-69
2022/06/06 11:30:13;;;;;;;;;;;29.60;64.70;;;;;;5091228;28;19916;-69
2022/06/06 11:32:57;;;;;;;;;;;29.30;64.10;;;;;;5092105;28;20010;-69
2022/06/06 11:35:23;;;;;;;;;;;29.20;64.40;;;;;;5090358;28;19957;-70
2022/06/06 11:37:49;;;;;;;;;;;29.30;64.10;;;;;;5091734;28;19959;-70
2022/06/06 11:40:21;;;;;;;;;;;29.60;64.60;;;;;;5091568;28;20275;-70
2022/06/06 11:42:49;;;;;;;;;;;29.80;64.20;;;;;;5091880;28;19912;-69
2022/06/06 11:45:35;;;;;;;;;;;29.80;63.10;;;;;;5090176;28;20008;-69
2022/06/06 11:48:01;;;;;;;;;;;29.60;63.90;;;;;;5081130;28;19916;-69
2022/06/06 11:50:45;;;;;;;;;;;29.50;64.20;;;;;;5091830;28;20474;-70
2022/06/06 11:53:29;;;;;;;;;;;29.40;63.20;;;;;;5091609;28;19990;-70
2022/06/06 11:55:54;;;;;;;;;;;29.20;64.90;;;;;;5091724;28;20253;-69
2022/06/06 11:58:32;;;;;;;;;;;29.00;65.20;;;;;;5091435;28;19934;-70
2022/06/06 12:01:00;;;;;;;;;;;28.90;65.20;;;;;;5091576;28;19920;-69
2022/06/06 12:03:45;;;;;;;;;;;28.70;65.80;;;;;;5091269;28;20388;-69
2022/06/06 12:06:13;;;;;;;;;;;28.50;66.10;;;;;;5089821;28;19912;-70
2022/06/06 12:08:54;;;;;;;;;;;28.50;65.40;;;;;;5091101;28;20544;-70
2022/06/06 12:11:29;;;;;;;;;;;28.70;65.20;;;;;;5091372;28;19912;-70
2022/06/06 12:14:01;;;;;;;;;;;29.00;65.30;;;;;;5089647;28;19923;-70
2022/06/06 12:16:26;;;;;;;;;;;29.10;65.10;;;;;;5091680;28;19912;-70
2022/06/06 12:19:03;;;;;;;;;;;29.10;65.10;;;;;;5091050;28;20264;-69
2022/06/06 12:21:31;;;;;;;;;;;29.20;65.20;;;;;;5089976;28;19913;-69
2022/06/06 12:24:04;;;;;;;;;;;29.00;66.00;;;;;;5090831;28;20367;-69
2022/06/06 12:26:49;;;;;;;;;;;28.60;65.50;;;;;;5091286;28;19916;-69
2022/06/06 12:29:23;;;;;;;;;;;28.20;65.70;;;;;;5090720;28;19919;-69
2022/06/06 12:31:56;;;;;;;;;;;28.00;66.40;;;;;;5090864;28;20426;-69
2022/06/06 12:34:34;;;;;;;;;;;27.90;65.50;;;;;;5091245;28;20352;-70
2022/06/06 12:37:13;;;;;;;;;;;27.70;65.30;;;;;;5090950;28;19961;-70
2022/06/06 12:39:41;;;;;;;;;;;27.50;64.10;;;;;;5091549;28;19955;-70
2022/06/06 12:42:12;;;;;;;;;;;27.40;65.30;;;;;;5094878;28;20375;-70
2022/06/06 12:44:43;;;;;;;;;;;27.30;65.30;;;;;;5094809;28;19987;-70
2022/06/06 12:47:27;;;;;;;;;;;27.40;65.80;;;;;;5094915;28;19956;-70
2022/06/06 12:50:04;;;;;;;;;;;27.30;65.90;;;;;;5094772;28;19993;-70
2022/06/06 12:52:48;;;;;;;;;;;27.30;66.80;;;;;;5094706;28;20016;-70
2022/06/06 12:55:33;;;;;;;;;;;27.30;66.00;;;;;;5094960;28;19916;-70
2022/06/06 12:58:04;;;;;;;;;;;27.30;67.10;;;;;;5095089;28;20011;-70
2022/06/06 13:03:16;;;;;;;;;;;27.00;67.40;;;;;;5095036;28;19920;-70
2022/06/06 13:06:00;;;;;;;;;;;26.70;66.50;;;;;;5094582;28;20352;-70
2022/06/06 13:08:40;;;;;;;;;;;26.50;67.30;;;;;;5094693;28;19941;-71
2022/06/06 13:11:09;;;;;;;;;;;26.40;68.60;;;;;;5094562;28;19960;-68
2022/06/06 13:13:52;;;;;;;;;;;26.20;67.40;;;;;;5094492;28;19919;-70
2022/06/06 13:16:34;;;;;;;;;;;26.10;67.10;;;;;;5094707;28;19912;-71
2022/06/06 13:19:10;;;;;;;;;;;26.00;68.20;;;;;;5094504;28;20015;-71
2022/06/06 13:21:43;;;;;;;;;;;25.90;67.60;;;;;;5094149;28;19920;-69
2022/06/06 13:24:08;;;;;;;;;;;25.90;68.80;;;;;;5094246;28;19931;-69
2022/06/06 13:26:41;;;;;;;;;;;25.90;69.10;;;;;;5094376;28;19916;-69
2022/06/06 13:29:07;;;;;;;;;;;25.90;69.20;;;;;;5094020;28;20025;-69
2022/06/06 13:31:45;;;;;;;;;;;25.70;69.30;;;;;;5094307;28;20260;-69
2022/06/06 13:34:13;;;;;;;;;;;25.70;69.90;;;;;;5092754;28;19912;-69
2022/06/06 13:36:38;;;;;;;;;;;25.70;69.40;;;;;;5094254;28;19916;-68
2022/06/06 13:39:25;;;;;;;;;;;25.70;69.90;;;;;;5094101;28;19924;-69
2022/06/06 13:41:52;;;;;;;;;;;25.60;70.40;;;;;;5094113;28;20033;-69
2022/06/06 13:44:23;;;;;;;;;;;25.50;69.30;;;;;;5093839;28;19908;-69
2022/06/06 13:46:58;;;;;;;;;;;25.50;68.70;;;;;;5093891;28;20395;-69
2022/06/06 13:49:24;;;;;;;;;;;25.50;70.10;;;;;;5091830;28;19966;-69
2022/06/06 13:51:59;;;;;;;;;;;25.40;69.90;;;;;;5091012;28;19947;-69
2022/06/06 13:54:43;;;;;;;;;;;25.50;70.00;;;;;;5093861;28;20028;-69
2022/06/06 13:57:23;;;;;;;;;;;25.40;69.70;;;;;;5091827;28;19909;-69
2022/06/06 13:59:57;;;;;;;;;;;25.10;70.80;;;;;;5093446;28;19916;-69
2022/06/06 14:02:40;;;;;;;;;;;24.90;71.30;;;;;;5093411;28;19908;-70
2022/06/06 14:05:05;;;;;;;;;;;24.90;72.40;;;;;;5093664;28;19959;-70
2022/06/06 14:07:46;;;;;;;;;;;24.90;71.90;;;;;;5093381;28;20330;-70
2022/06/06 14:10:14;;;;;;;;;;;24.90;72.10;;;;;;5093606;28;20234;-70
2022/06/06 14:12:52;;;;;;;;;;;24.80;72.00;;;;;;5093326;28;20281;-70
2022/06/06 14:15:19;;;;;;;;;;;24.80;72.40;;;;;;5093216;28;20324;-69
2022/06/06 14:17:50;;;;;;;;;;;24.80;73.00;;;;;;5093078;28;19995;-70
2022/06/06 14:20:22;;;;;;;;;;;24.80;71.70;;;;;;5093387;28;20305;-70
2022/06/06 14:22:49;;;;;;;;;;;24.70;71.70;;;;;;5093253;28;20006;-69
2022/06/06 14:25:15;;;;;;;;;;;24.70;71.80;;;;;;5093095;28;19928;-70
2022/06/06 14:27:40;;;;;;;;;;;24.70;71.30;;;;;;5093009;28;19912;-69
2022/06/06 14:30:14;;;;;;;;;;;24.70;71.30;;;;;;5092989;28;19924;-70
2022/06/06 14:32:46;;;;;;;;;;;24.70;72.10;;;;;;5092773;28;20284;-69
2022/06/06 14:35:18;;;;;;;;;;;24.70;73.00;;;;;;5092770;28;19923;-69
2022/06/06 14:37:45;;;;;;;;;;;24.60;72.30;;;;;;5092592;28;19915;-69
2022/06/06 14:40:12;;;;;;;;;;;24.60;72.50;;;;;;5091245;28;19938;-69
2022/06/06 14:42:39;;;;;;;;;;;24.50;72.80;;;;;;5092378;28;19908;-69
2022/06/06 14:45:04;;;;;;;;;;;24.40;73.20;;;;;;5092574;28;20296;-69
2022/06/06 14:47:31;;;;;;;;;;;24.40;74.40;;;;;;5092414;28;19961;-69
2022/06/06 14:53:01;;;;;;;;;;;24.40;74.30;;;;;;5092538;28;19915;-69
2022/06/06 14:55:28;;;;;;;;;;;24.20;74.90;;;;;;5090947;28;19928;-69
2022/06/06 14:57:54;;;;;;;;;;;24.30;75.60;;;;;;5092220;28;19908;-69
2022/06/06 15:00:34;;;;;;;;;;;24.20;75.30;;;;;;5092225;28;19995;-70
2022/06/06 15:03:01;;;;;;;;;;;24.20;75.80;;;;;;5091899;28;19915;-70
2022/06/06 15:05:26;;;;;;;;;;;24.10;75.70;;;;;;5092496;28;19931;-70
2022/06/06 15:07:57;;;;;;;;;;;24.10;75.90;;;;;;5090899;28;19908;-70
2022/06/06 15:10:28;;;;;;;;;;;24.00;76.10;;;;;;5092423;28;20380;-70
2022/06/06 15:12:55;;;;;;;;;;;24.00;76.20;;;;;;5092011;28;19944;-70